Bristol, NH (03222)

6:42 PM EST on February 06, 2016 (GMT -0500)
Bristol Village | | Change Station
CLOSE
Current Station
Personal Weather Station
Location: Bristol, NH
Elevation: 515 ft
Nearby Weather Stations

Elev 515 ft 43.59 °N, 71.74 °W | Updated 2 seconds ago

Clear
Clear
33.9 °F
Feels Like 34 °F
N
1.0
Wind Variable Wind from WSW
Gusts 2.0 mph

Today
High -- | Low -- °F
--% Chance of Precip.
Yesterday
High -- | Low -- °F
Precip. -- in
Pressure 30.16 in
Visibility 10.0 miles
Clouds Overcast 7000 ft
Windchill 34 °F
Dew Point 25 °F
Humidity 70%
Rainfall 0.00 in
Snow Depth Not available.
6:58 AM 5:04 PM
Waning Crescent, 3% visible
METAR K1P1 062335Z AUTO 23005KT 10SM OVC070 03/M07 A3016 RMK AO2 T00271067
Pressure 30.16 in
Visibility 10.0 miles
Clouds Overcast 7000 ft
Windchill 34 °F
Dew Point 25 °F
Humidity 70%
Rainfall 0.00 in
Snow Depth Not available.
6:58 AM 5:04 PM
Waning Crescent, 3% visible
METAR K1P1 062335Z AUTO 23005KT 10SM OVC070 03/M07 A3016 RMK AO2 T00271067

10-Day Weather Forecast

Almanac

Astronomy

Feb. 06, 2016 Rise Set
Actual Time
Civil Twilight
Nautical Twilight
Astronomical Twilight
Moon
Length of Visible Light
Length of Day
Tomorrow will be .
, % of the Moon is Illuminated

Today's Extremes

State Highs State Lows

Community

WunderPhotos

Upload Photos

1,891,098 photos uploaded!

WunderBlog® & News

Nearby

Air Quality

  Air Quality AQ Index Pollutant
Not available.

Snow Depth

Station Depth Elevation

Earthquake Activity

City Distance Mag. Time & Date
Minimum magnitude displayed is 2.5.

Coastal Water Temperatures

Place Temperature

Stations

Nearby Weather Stations

Station Location Temp. Windchill Dew Point Humidity Wind Precip. Elev Updated Type
                   

Watches & Warnings

There are currently no watches in effect.